Time;durP1;ratioP1;P1;durP2;ratioP2;P2;SDS_P1;SDS_P2;PMS_P1;PMS_P2;Temp;Humidity;BMP_temperature;BMP_pressure;BME280_temperature;BME280_humidity;BME280_pressure;Samples;Min_cycle;Max_cycle;Signal;HPM_P1;HPM_P2
2022/03/27 00:02:05;;;;;;;27.67;20.17;;;8.30;99.90;;;;;;4947063;29;20051;-76
2022/03/27 00:04:32;;;;;;;27.67;18.20;;;8.30;99.90;;;;;;4949358;28;20039;-75
2022/03/27 00:06:59;;;;;;;27.42;18.45;;;8.30;99.90;;;;;;4938879;29;20050;-76
2022/03/27 00:09:26;;;;;;;28.40;18.42;;;8.30;99.90;;;;;;4966216;28;20090;-75
2022/03/27 00:11:53;;;;;;;28.33;17.20;;;8.30;99.90;;;;;;4957291;28;20126;-76
2022/03/27 00:14:21;;;;;;;25.88;18.73;;;8.30;99.90;;;;;;4954380;29;20522;-77
2022/03/27 00:16:48;;;;;;;66.50;45.75;;;8.30;99.90;;;;;;4942787;29;20059;-69
2022/03/27 00:19:15;;;;;;;32.42;20.38;;;8.30;99.90;;;;;;4922398;29;20396;-67
2022/03/27 00:21:44;;;;;;;42.58;27.92;;;8.40;99.90;;;;;;4979523;28;20391;-68
2022/03/27 00:24:11;;;;;;;45.35;33.00;;;8.40;99.90;;;;;;4958958;28;20467;-75
2022/03/27 00:26:38;;;;;;;31.30;18.67;;;8.50;99.90;;;;;;4949526;28;20126;-76
2022/03/27 00:29:05;;;;;;;27.15;18.55;;;8.40;99.90;;;;;;4943150;29;20055;-75
2022/03/27 00:31:35;;;;;;;23.17;16.15;;;8.30;99.90;;;;;;4946198;29;20048;-75
2022/03/27 00:34:03;;;;;;;28.25;17.80;;;8.20;99.90;;;;;;4955154;29;20047;-75
2022/03/27 00:36:30;;;;;;;22.90;15.95;;;8.20;99.90;;;;;;4958058;28;20486;-74
2022/03/27 00:38:58;;;;;;;27.30;16.85;;;8.20;99.90;;;;;;4951803;28;20043;-74
2022/03/27 00:41:25;;;;;;;26.90;17.13;;;8.10;99.90;;;;;;4943365;29;20058;-75
2022/03/27 00:43:52;;;;;;;95.43;80.85;;;8.10;99.90;;;;;;4939630;29;20049;-69
2022/03/27 00:46:19;;;;;;;226.18;162.18;;;8.10;99.90;;;;;;4937403;29;20051;-72
2022/03/27 00:48:46;;;;;;;225.98;178.88;;;8.30;99.90;;;;;;4937167;29;20043;-74
2022/03/27 00:51:13;;;;;;;35.63;25.05;;;8.30;99.90;;;;;;4952510;29;20051;-71
2022/03/27 00:53:40;;;;;;;36.20;25.13;;;8.30;99.90;;;;;;4953011;29;20061;-74
2022/03/27 00:56:07;;;;;;;24.33;18.42;;;8.20;99.90;;;;;;4968404;28;20348;-75
2022/03/27 00:58:34;;;;;;;25.27;16.75;;;8.10;99.90;;;;;;4940018;29;20043;-75
2022/03/27 01:01:37;;;;;;;26.80;16.45;;;8.10;99.90;;;;;;4945825;28;20491;-74
2022/03/27 01:04:05;;;;;;;24.23;13.50;;;8.10;99.90;;;;;;4946244;29;20409;-73
2022/03/27 01:06:33;;;;;;;19.83;13.65;;;8.00;99.90;;;;;;4954942;28;20046;-72
2022/03/27 01:11:47;;;;;;;22.25;15.15;;;7.90;99.90;;;;;;4961594;28;20503;-74
2022/03/27 01:14:17;;;;;;;19.92;13.10;;;7.80;99.90;;;;;;4950278;29;20102;-74
2022/03/27 01:16:47;;;;;;;165.43;131.82;;;7.70;99.90;;;;;;4954182;29;20050;-74
2022/03/27 01:19:15;;;;;;;62.63;50.55;;;7.70;99.90;;;;;;4956949;28;20055;-75
2022/03/27 01:21:46;;;;;;;98.50;69.82;;;7.70;99.90;;;;;;4942160;29;20427;-74
2022/03/27 01:24:16;;;;;;;25.67;17.40;;;7.70;99.90;;;;;;4944154;29;20094;-74
2022/03/27 01:26:43;;;;;;;22.30;14.50;;;7.70;99.90;;;;;;4940867;28;20122;-74
2022/03/27 01:29:10;;;;;;;21.83;14.10;;;7.60;99.90;;;;;;4948683;29;20054;-73
2022/03/27 01:31:37;;;;;;;22.27;14.35;;;7.70;99.90;;;;;;4943331;28;20087;-74
2022/03/27 01:34:05;;;;;;;22.50;13.25;;;7.60;99.90;;;;;;4937288;29;20051;-74
2022/03/27 01:36:34;;;;;;;19.55;12.50;;;7.60;99.90;;;;;;4932601;29;20476;-75
2022/03/27 01:39:04;;;;;;;18.75;12.32;;;7.60;99.90;;;;;;4950715;29;20478;-75
2022/03/27 01:41:31;;;;;;;21.58;14.93;;;7.60;99.90;;;;;;4945877;29;20052;-69
2022/03/27 01:43:59;;;;;;;33.45;20.60;;;7.70;99.90;;;;;;4950492;28;20442;-76
2022/03/27 01:46:37;;;;;;;732.63;433.35;;;7.70;99.90;;;;;;4930473;29;20130;-76
2022/03/27 01:49:06;;;;;;;83.50;51.90;;;7.70;99.90;;;;;;4958154;28;20083;-76
2022/03/27 01:51:33;;;;;;;41.30;25.27;;;7.70;99.90;;;;;;4935586;29;20052;-76
2022/03/27 01:54:00;;;;;;;30.75;20.20;;;7.60;99.90;;;;;;4923089;29;20047;-75
2022/03/27 01:56:27;;;;;;;26.77;15.43;;;7.50;99.90;;;;;;4938765;29;20139;-75
2022/03/27 01:58:54;;;;;;;21.23;13.13;;;7.40;99.90;;;;;;4950227;29;20047;-76
2022/03/27 02:01:21;;;;;;;24.40;14.32;;;7.30;99.90;;;;;;4945875;29;20074;-75
2022/03/27 02:03:48;;;;;;;17.25;11.32;;;7.20;99.90;;;;;;4921514;29;20054;-75
2022/03/27 02:06:16;;;;;;;18.77;11.00;;;7.10;99.90;;;;;;4937271;28;20058;-75
2022/03/27 02:08:44;;;;;;;17.92;11.13;;;7.10;99.90;;;;;;4953757;29;20417;-75
2022/03/27 02:11:11;;;;;;;17.10;12.80;;;7.00;99.90;;;;;;4936419;29;20051;-75
2022/03/27 02:13:38;;;;;;;20.30;12.68;;;7.00;99.90;;;;;;4940855;29;20051;-76
2022/03/27 02:16:05;;;;;;;18.88;12.10;;;6.90;99.90;;;;;;4937128;29;20055;-76
2022/03/27 02:18:32;;;;;;;18.45;12.35;;;7.00;99.90;;;;;;4965890;28;20093;-76
2022/03/27 02:21:05;;;;;;;18.73;12.13;;;7.00;99.90;;;;;;4951098;29;20098;-70
2022/03/27 02:23:32;;;;;;;19.00;12.70;;;7.00;99.90;;;;;;4964087;28;20389;-68
2022/03/27 02:25:59;;;;;;;75.63;54.60;;;7.00;99.90;;;;;;4935114;29;20389;-78
2022/03/27 02:28:26;;;;;;;127.05;97.60;;;7.10;99.90;;;;;;4933762;29;20066;-76
2022/03/27 02:30:53;;;;;;;28.40;18.35;;;7.00;99.90;;;;;;4965311;28;20047;-74
2022/03/27 02:33:20;;;;;;;23.70;15.35;;;6.90;99.90;;;;;;4963593;28;20047;-70
2022/03/27 02:35:47;;;;;;;20.95;13.50;;;6.80;99.90;;;;;;4981910;28;20395;-77
2022/03/27 02:38:14;;;;;;;18.90;13.38;;;6.70;99.90;;;;;;4937759;29;20051;-77
2022/03/27 02:40:42;;;;;;;16.02;10.10;;;6.60;99.90;;;;;;4936120;29;20051;-77
2022/03/27 02:43:11;;;;;;;17.92;11.90;;;6.50;99.90;;;;;;4948922;29;20408;-70
2022/03/27 02:45:38;;;;;;;;;;;6.50;99.90;;;;;;4969764;28;20051;-77
2022/03/27 02:48:06;;;;;;;20.25;10.40;;;6.40;99.90;;;;;;4943463;29;20268;-70
2022/03/27 02:50:33;;;;;;;16.70;12.45;;;6.30;99.90;;;;;;4951287;28;20058;-69
2022/03/27 02:53:00;;;;;;;17.45;11.35;;;6.30;99.90;;;;;;4940984;29;20538;-68
2022/03/27 02:55:27;;;;;;;18.92;13.45;;;6.30;99.90;;;;;;4936771;29;20408;-70
2022/03/27 02:57:54;;;;;;;20.77;13.05;;;6.30;99.90;;;;;;4954312;28;20058;-74
2022/03/27 03:00:21;;;;;;;955.45;586.75;;;6.30;99.90;;;;;;4921209;29;20518;-69
2022/03/27 03:02:48;;;;;;;89.70;72.35;;;6.30;99.90;;;;;;4948090;29;20054;-71
2022/03/27 03:05:16;;;;;;;58.55;40.70;;;6.20;99.90;;;;;;4958001;28;20051;-74
2022/03/27 03:07:44;;;;;;;40.30;29.85;;;6.20;99.90;;;;;;4944554;29;20111;-72
2022/03/27 03:10:11;;;;;;;34.72;20.30;;;6.10;99.90;;;;;;4949926;28;20051;-68
2022/03/27 03:12:39;;;;;;;26.80;17.52;;;6.10;99.90;;;;;;4950019;28;20079;-72
2022/03/27 03:15:06;;;;;;;25.40;14.60;;;6.00;99.90;;;;;;4936804;29;20452;-71
2022/03/27 03:17:34;;;;;;;26.15;14.77;;;6.00;99.90;;;;;;4928829;29;20043;-75
2022/03/27 03:20:01;;;;;;;39.92;25.13;;;6.00;99.90;;;;;;4958548;28;20062;-65
2022/03/27 03:22:28;;;;;;;87.43;63.22;;;6.00;99.90;;;;;;4943294;29;20043;-69
2022/03/27 03:24:55;;;;;;;48.22;31.65;;;6.00;99.90;;;;;;4954853;29;20094;-77
2022/03/27 03:27:22;;;;;;;25.73;16.52;;;5.90;99.90;;;;;;4954321;29;20052;-68
2022/03/27 03:29:49;;;;;;;24.27;14.02;;;5.80;99.90;;;;;;4972097;28;20058;-68
2022/03/27 03:32:16;;;;;;;26.50;14.40;;;5.80;99.90;;;;;;4952983;29;20124;-70
2022/03/27 03:34:42;;;;;;;21.17;13.30;;;5.70;99.90;;;;;;4922791;29;20507;-71
2022/03/27 03:37:09;;;;;;;104.18;59.13;;;5.70;99.90;;;;;;4941458;28;20047;-71
2022/03/27 03:39:36;;;;;;;363.55;233.23;;;5.70;99.90;;;;;;4935184;29;20048;-71
2022/03/27 03:42:04;;;;;;;60.70;37.40;;;5.80;99.90;;;;;;4956086;29;20055;-71
2022/03/27 03:44:30;;;;;;;34.33;22.67;;;5.80;99.90;;;;;;4956428;29;20498;-68
2022/03/27 03:46:57;;;;;;;24.70;16.27;;;5.70;99.90;;;;;;4969771;28;20057;-71
2022/03/27 03:49:25;;;;;;;26.42;15.98;;;5.70;99.90;;;;;;4956091;29;20047;-71
2022/03/27 03:51:52;;;;;;;20.10;13.25;;;5.70;99.90;;;;;;4952019;29;20054;-72
2022/03/27 03:54:19;;;;;;;26.88;15.13;;;5.60;99.90;;;;;;4935663;29;20057;-72
2022/03/27 03:56:45;;;;;;;21.20;13.80;;;5.60;99.90;;;;;;4971115;28;20067;-71
2022/03/27 03:59:12;;;;;;;21.38;14.27;;;5.50;99.90;;;;;;4947523;29;20059;-71
2022/03/27 04:01:55;;;;;;;23.27;15.25;;;5.50;99.90;;;;;;4967179;28;20051;-71
2022/03/27 04:04:22;;;;;;;24.23;16.27;;;5.50;99.90;;;;;;4955589;29;20127;-71
2022/03/27 04:06:49;;;;;;;23.13;14.38;;;5.50;99.90;;;;;;4965559;28;20046;-72
2022/03/27 04:09:16;;;;;;;20.98;13.95;;;5.50;99.90;;;;;;4958881;28;20054;-71
2022/03/27 04:11:44;;;;;;;23.73;15.00;;;5.50;99.90;;;;;;4968494;28;20054;-72
2022/03/27 04:14:11;;;;;;;21.33;13.25;;;5.60;99.90;;;;;;4958487;28;20047;-72
2022/03/27 04:16:38;;;;;;;21.75;13.95;;;5.60;99.90;;;;;;4951854;28;20063;-71
2022/03/27 04:19:05;;;;;;;22.73;14.77;;;5.60;99.90;;;;;;4964068;28;20471;-71
2022/03/27 04:21:32;;;;;;;23.58;14.77;;;5.70;99.90;;;;;;4951437;29;20071;-72
2022/03/27 04:23:59;;;;;;;21.30;14.27;;;5.80;99.90;;;;;;4953758;29;20055;-71
2022/03/27 04:26:32;;;;;;;23.00;15.50;;;6.00;99.90;;;;;;4940161;28;20111;-72
2022/03/27 04:29:00;;;;;;;23.75;15.57;;;6.20;99.90;;;;;;4956533;28;20048;-72
2022/03/27 04:31:28;;;;;;;25.13;15.30;;;6.30;99.90;;;;;;4941362;29;20063;-71
2022/03/27 04:33:56;;;;;;;22.40;15.00;;;6.40;99.90;;;;;;4950099;29;20533;-72
2022/03/27 04:36:23;;;;;;;25.00;16.48;;;6.50;99.90;;;;;;4949632;28;20289;-72
2022/03/27 04:38:50;;;;;;;24.15;16.63;;;6.60;99.90;;;;;;4940319;29;20075;-72
2022/03/27 04:41:17;;;;;;;29.33;16.20;;;6.60;99.90;;;;;;4953838;28;20606;-72
2022/03/27 04:43:48;;;;;;;26.98;17.08;;;6.70;99.90;;;;;;4938345;29;20415;-72
2022/03/27 04:46:15;;;;;;;27.70;17.17;;;6.70;99.90;;;;;;4926584;29;20495;-71
2022/03/27 04:48:43;;;;;;;28.90;18.42;;;6.80;99.90;;;;;;4951742;29;20047;-72
2022/03/27 04:51:10;;;;;;;35.10;18.75;;;6.80;99.90;;;;;;4970071;28;20047;-72
2022/03/27 04:53:37;;;;;;;28.25;17.48;;;6.90;99.90;;;;;;4963354;28;20059;-72
2022/03/27 04:56:06;;;;;;;31.77;17.60;;;6.90;99.90;;;;;;4931160;29;20069;-72
2022/03/27 04:58:33;;;;;;;36.20;19.55;;;7.00;99.90;;;;;;4965202;28;20292;-72
2022/03/27 05:01:00;;;;;;;33.85;18.80;;;7.00;99.90;;;;;;4947532;29;20403;-72
2022/03/27 05:03:27;;;;;;;35.72;19.48;;;7.00;99.90;;;;;;4947895;28;20047;-72
2022/03/27 05:05:54;;;;;;;39.20;21.55;;;7.00;99.90;;;;;;4964434;28;20059;-72
2022/03/27 05:08:21;;;;;;;39.75;21.95;;;7.00;99.90;;;;;;4949809;29;20059;-72
2022/03/27 05:10:48;;;;;;;35.42;20.75;;;7.00;99.90;;;;;;4940386;28;20127;-72
2022/03/27 05:13:15;;;;;;;40.90;21.73;;;7.10;99.90;;;;;;4938290;29;20047;-72
2022/03/27 05:15:42;;;;;;;41.47;21.85;;;7.10;99.90;;;;;;4969955;28;20055;-72
2022/03/27 05:18:09;;;;;;;38.45;21.88;;;7.10;99.90;;;;;;4950168;29;20122;-72
2022/03/27 05:20:39;;;;;;;44.38;21.90;;;7.10;99.90;;;;;;4951247;29;20055;-71
2022/03/27 05:23:06;;;;;;;44.25;20.23;;;7.10;99.90;;;;;;4966408;28;20135;-72
2022/03/27 05:25:40;;;;;;;46.17;23.83;;;7.00;99.90;;;;;;4966037;28;20048;-71
2022/03/27 05:28:09;;;;;;;37.28;19.55;;;7.00;99.90;;;;;;4952249;29;20058;-72
2022/03/27 05:30:36;;;;;;;36.75;21.77;;;7.00;99.90;;;;;;4951999;29;20044;-72
2022/03/27 05:33:03;;;;;;;40.75;22.25;;;7.00;99.90;;;;;;4969660;28;20050;-71
2022/03/27 05:35:30;;;;;;;37.40;19.23;;;7.00;99.90;;;;;;4944124;28;20058;-72
2022/03/27 05:38:02;;;;;;;39.33;19.23;;;7.10;99.90;;;;;;4953699;28;20126;-72
2022/03/27 05:40:29;;;;;;;40.50;20.25;;;7.10;99.90;;;;;;4946276;28;20055;-72
2022/03/27 05:42:56;;;;;;;33.90;19.98;;;7.10;99.90;;;;;;4948712;28;20039;-72
2022/03/27 05:45:23;;;;;;;36.22;17.05;;;7.10;99.90;;;;;;4955373;28;20411;-71
2022/03/27 05:47:51;;;;;;;98.18;21.40;;;7.00;99.90;;;;;;4953272;29;20051;-71
2022/03/27 05:50:19;;;;;;;26.15;17.85;;;7.10;99.90;;;;;;4937956;29;20066;-71
2022/03/27 05:52:46;;;;;;;25.17;15.93;;;7.10;99.90;;;;;;4941092;29;20367;-73
2022/03/27 05:55:13;;;;;;;28.20;16.33;;;7.10;99.90;;;;;;4951336;29;20051;-73
2022/03/27 05:57:43;;;;;;;31.75;15.73;;;7.20;99.90;;;;;;4945207;29;20047;-71
2022/03/27 06:00:12;;;;;;;31.02;14.40;;;7.10;99.90;;;;;;4969134;28;20059;-71
2022/03/27 06:02:39;;;;;;;32.47;14.25;;;7.20;99.90;;;;;;4952206;29;20130;-72
2022/03/27 06:05:07;;;;;;;32.63;15.43;;;7.20;99.90;;;;;;4954961;28;20098;-72
2022/03/27 06:07:44;;;;;;;25.05;14.98;;;7.20;99.90;;;;;;4941560;29;20503;-72
2022/03/27 06:10:12;;;;;;;21.98;13.43;;;7.20;99.90;;;;;;4933689;28;20062;-72
2022/03/27 06:12:39;;;;;;;33.63;12.50;;;7.30;99.90;;;;;;4960745;28;20066;-72
2022/03/27 06:15:07;;;;;;;22.95;13.05;;;7.30;99.90;;;;;;4938986;28;20063;-71
2022/03/27 06:17:39;;;;;;;22.55;12.25;;;7.40;99.90;;;;;;4950455;29;20059;-72
2022/03/27 06:20:07;;;;;;;24.30;13.00;;;7.40;99.90;;;;;;4949204;29;20048;-71
2022/03/27 06:22:33;;;;;;;23.15;12.63;;;7.40;99.90;;;;;;4949443;29;20389;-72
2022/03/27 06:25:01;;;;;;;20.73;10.98;;;7.50;99.90;;;;;;4937383;29;20145;-72
2022/03/27 06:27:28;;;;;;;17.10;10.73;;;7.50;99.90;;;;;;4953719;28;20051;-72
2022/03/27 06:29:54;;;;;;;23.27;12.18;;;7.50;99.90;;;;;;4950643;29;20059;-72
2022/03/27 06:32:21;;;;;;;18.48;10.88;;;7.50;99.90;;;;;;4939907;29;20051;-72
2022/03/27 06:34:48;;;;;;;17.25;12.52;;;7.50;99.90;;;;;;4950815;29;20051;-72
2022/03/27 06:37:15;;;;;;;17.00;12.70;;;7.50;99.90;;;;;;4959486;28;20126;-72
2022/03/27 06:39:42;;;;;;;19.83;10.32;;;7.60;99.90;;;;;;4952419;28;20047;-72
2022/03/27 06:42:10;;;;;;;22.05;10.98;;;7.60;99.90;;;;;;4951693;28;20059;-72
2022/03/27 06:44:37;;;;;;;18.50;10.35;;;7.60;99.90;;;;;;4936254;29;20051;-72
2022/03/27 06:47:06;;;;;;;18.00;11.82;;;7.60;99.90;;;;;;4939205;29;20054;-71
2022/03/27 06:49:33;;;;;;;17.17;10.45;;;7.70;99.90;;;;;;4951890;29;20069;-71
2022/03/27 06:52:00;;;;;;;17.35;10.80;;;7.70;99.90;;;;;;4929461;29;20054;-73
2022/03/27 06:54:29;;;;;;;15.18;10.75;;;7.70;99.90;;;;;;4937581;28;20080;-71
2022/03/27 06:56:56;;;;;;;18.27;11.23;;;7.80;99.90;;;;;;4937263;29;20047;-71
2022/03/27 06:59:23;;;;;;;29.13;12.00;;;7.80;99.90;;;;;;4953350;28;20051;-71
2022/03/27 07:04:35;;;;;;;22.20;12.15;;;7.80;99.90;;;;;;4950352;29;20043;-71
2022/03/27 07:07:02;;;;;;;17.13;11.07;;;7.90;99.90;;;;;;4940635;29;20510;-71
2022/03/27 07:09:29;;;;;;;19.25;12.40;;;7.90;99.90;;;;;;4936683;29;20051;-70
2022/03/27 07:11:56;;;;;;;17.05;11.15;;;7.90;99.90;;;;;;4950844;29;20058;-70
2022/03/27 07:14:24;;;;;;;20.48;11.35;;;7.90;99.90;;;;;;4967816;28;20043;-71
2022/03/27 07:16:51;;;;;;;18.83;11.18;;;7.90;99.90;;;;;;4947312;29;20057;-72
2022/03/27 07:19:18;;;;;;;20.83;12.20;;;8.00;99.90;;;;;;4947329;29;20288;-71
2022/03/27 07:21:45;;;;;;;18.33;11.45;;;8.00;99.90;;;;;;4953163;28;20403;-71
2022/03/27 07:24:12;;;;;;;22.20;12.40;;;8.00;99.90;;;;;;4948632;29;20059;-71
2022/03/27 07:26:41;;;;;;;16.55;10.40;;;8.10;99.90;;;;;;4967790;28;20088;-71
2022/03/27 07:29:10;;;;;;;17.52;9.68;;;8.10;99.90;;;;;;4947005;29;20058;-71
2022/03/27 07:31:37;;;;;;;16.58;9.82;;;8.10;99.90;;;;;;4946388;29;20052;-71
2022/03/27 07:34:04;;;;;;;19.40;9.88;;;8.10;99.90;;;;;;4936026;29;20118;-71
2022/03/27 07:36:31;;;;;;;15.35;10.45;;;8.20;99.90;;;;;;4935929;28;20051;-73
2022/03/27 07:38:58;;;;;;;16.48;10.30;;;8.30;99.90;;;;;;4951681;29;20056;-72
2022/03/27 07:41:25;;;;;;;125.43;18.77;;;8.30;99.90;;;;;;4959238;28;20509;-73
2022/03/27 07:43:52;;;;;;;21.73;11.02;;;8.30;99.90;;;;;;4941304;28;20058;-73
2022/03/27 07:46:19;;;;;;;24.73;11.20;;;8.30;99.90;;;;;;4931096;29;20051;-73
2022/03/27 07:48:46;;;;;;;20.85;10.68;;;8.40;99.90;;;;;;4951905;28;20051;-73
2022/03/27 07:51:13;;;;;;;20.13;12.00;;;8.30;99.90;;;;;;4950448;29;20051;-72
2022/03/27 07:53:40;;;;;;;17.05;10.48;;;8.30;99.90;;;;;;4933245;29;20411;-73
2022/03/27 07:56:07;;;;;;;19.13;11.13;;;8.40;99.90;;;;;;4914070;29;20106;-73
2022/03/27 07:58:34;;;;;;;21.27;10.75;;;8.40;99.90;;;;;;4951475;29;20044;-73
2022/03/27 08:01:01;;;;;;;23.20;12.73;;;8.50;99.90;;;;;;4940088;29;20070;-73
2022/03/27 08:03:28;;;;;;;34.75;13.15;;;8.50;99.90;;;;;;4951585;29;20048;-74
2022/03/27 08:05:55;;;;;;;27.20;13.15;;;8.50;99.90;;;;;;4962210;28;20059;-74
2022/03/27 08:08:22;;;;;;;26.30;12.43;;;8.50;99.90;;;;;;4942363;29;20074;-73
2022/03/27 08:10:49;;;;;;;54.80;14.63;;;8.50;99.90;;;;;;4942499;28;20479;-73
2022/03/27 08:13:16;;;;;;;29.20;13.45;;;8.50;99.90;;;;;;4936281;29;20491;-73
2022/03/27 08:15:43;;;;;;;36.03;13.18;;;8.60;99.90;;;;;;4948037;29;20055;-73
2022/03/27 08:18:13;;;;;;;24.25;11.25;;;8.50;99.90;;;;;;4967710;28;20413;-73
2022/03/27 08:20:40;;;;;;;26.55;11.05;;;8.60;99.90;;;;;;4947720;29;20055;-72
2022/03/27 08:23:10;;;;;;;16.98;9.80;;;8.60;99.90;;;;;;4954454;29;20054;-75
2022/03/27 08:28:23;;;;;;;17.25;10.20;;;8.60;99.90;;;;;;4943609;28;20548;-73
2022/03/27 08:30:50;;;;;;;20.10;11.43;;;8.60;99.90;;;;;;4950743;29;20522;-73
2022/03/27 08:33:17;;;;;;;20.02;11.45;;;8.70;99.90;;;;;;4919299;29;20484;-73
2022/03/27 08:35:45;;;;;;;17.15;11.18;;;8.70;99.90;;;;;;4963126;28;20142;-72
2022/03/27 08:38:16;;;;;;;35.30;13.85;;;8.70;99.90;;;;;;4951235;28;20471;-73
2022/03/27 08:40:49;;;;;;;19.27;12.27;;;8.70;99.90;;;;;;4953357;28;20125;-73
2022/03/27 08:43:17;;;;;;;14.75;10.40;;;8.70;99.90;;;;;;4946762;29;20059;-73
2022/03/27 08:45:44;;;;;;;11.98;8.82;;;8.60;99.90;;;;;;4939480;29;20058;-72
2022/03/27 08:48:11;;;;;;;13.52;7.78;;;8.70;99.90;;;;;;4936846;29;20044;-74
2022/03/27 08:50:44;;;;;;;7.93;5.88;;;8.60;99.90;;;;;;4939884;29;20047;-73
2022/03/27 08:53:14;;;;;;;8.63;6.78;;;8.60;99.90;;;;;;4935232;29;20051;-73
2022/03/27 08:55:55;;;;;;;11.02;6.82;;;8.60;99.90;;;;;;4969336;28;20055;-72
2022/03/27 08:58:25;;;;;;;10.57;6.68;;;8.70;99.90;;;;;;4941049;29;20483;-73
2022/03/27 09:00:52;;;;;;;10.27;6.82;;;8.70;99.90;;;;;;4968300;28;20047;-73
2022/03/27 09:03:20;;;;;;;11.30;6.55;;;8.80;99.90;;;;;;4924281;29;20059;-73
2022/03/27 09:05:47;;;;;;;10.93;6.60;;;8.70;99.90;;;;;;4953169;28;20082;-73
2022/03/27 09:08:14;;;;;;;9.98;7.35;;;8.80;99.90;;;;;;4966386;28;20054;-73
2022/03/27 09:10:41;;;;;;;10.45;7.13;;;8.80;99.90;;;;;;4956270;28;20044;-73
2022/03/27 09:13:12;;;;;;;10.27;7.35;;;8.90;99.90;;;;;;4947983;29;20499;-74
2022/03/27 09:15:42;;;;;;;9.90;6.85;;;8.90;99.90;;;;;;4921135;29;20051;-72
2022/03/27 09:18:11;;;;;;;31.45;22.48;;;8.80;99.90;;;;;;4952939;29;20083;-72
2022/03/27 09:20:51;;;;;;;20.35;12.00;;;8.90;99.90;;;;;;4950527;28;20052;-71
2022/03/27 09:23:26;;;;;;;14.10;10.07;;;9.00;99.90;;;;;;4953448;29;20388;-72
2022/03/27 09:26:00;;;;;;;11.10;6.88;;;9.00;99.90;;;;;;4948926;29;20122;-72
2022/03/27 09:28:34;;;;;;;10.70;6.90;;;9.10;99.90;;;;;;4963190;28;20501;-71
2022/03/27 09:31:18;;;;;;;13.52;7.70;;;9.20;99.90;;;;;;4948366;28;20055;-71
2022/03/27 09:33:52;;;;;;;11.93;7.60;;;9.20;99.90;;;;;;4947182;28;20062;-71
2022/03/27 09:36:20;;;;;;;9.60;6.70;;;9.10;99.90;;;;;;4946818;29;20047;-71
2022/03/27 09:39:15;;;;;;;9.77;7.18;;;9.10;99.90;;;;;;4967742;28;20509;-72
2022/03/27 09:41:46;;;;;;;9.48;6.97;;;9.20;99.90;;;;;;4964010;28;20048;-71
2022/03/27 09:44:20;;;;;;;9.88;7.45;;;9.20;99.90;;;;;;4940676;29;20051;-71
2022/03/27 09:47:04;;;;;;;8.90;6.60;;;9.20;99.90;;;;;;4937755;29;20058;-72
2022/03/27 09:49:30;;;;;;;9.60;6.88;;;9.30;99.90;;;;;;4954874;28;20400;-71
2022/03/27 09:51:58;;;;;;;8.85;6.32;;;9.20;99.90;;;;;;4954714;29;20051;-72
2022/03/27 09:54:27;;;;;;;10.70;7.25;;;9.10;99.90;;;;;;4953498;29;20513;-72
2022/03/27 09:56:54;;;;;;;9.10;5.65;;;9.20;99.90;;;;;;4971646;28;20051;-71
2022/03/27 09:59:32;;;;;;;9.73;6.75;;;9.30;99.90;;;;;;4951478;29;20100;-65
2022/03/27 10:02:19;;;;;;;19.33;15.60;;;9.30;99.90;;;;;;4939084;29;20043;-72
2022/03/27 10:05:00;;;;;;;9.38;7.00;;;9.40;99.90;;;;;;4951190;29;20051;-75
2022/03/27 10:07:33;;;;;;;8.55;6.95;;;9.40;99.90;;;;;;4966815;28;20492;-73
2022/03/27 10:10:01;;;;;;;11.68;7.85;;;9.40;99.90;;;;;;4966584;28;20511;-69
2022/03/27 10:12:29;;;;;;;11.25;7.70;;;9.30;99.90;;;;;;4965442;28;20547;-66
2022/03/27 10:15:03;;;;;;;74.38;13.25;;;9.30;99.90;;;;;;4964959;28;20059;-64
2022/03/27 10:17:32;;;;;;;16.15;7.80;;;9.20;99.90;;;;;;4948135;29;20051;-68
2022/03/27 10:20:00;;;;;;;;;;;9.20;99.90;;;;;;4959768;28;20043;-77
2022/03/27 10:22:28;;;;;;;21.10;14.25;;;9.00;99.90;;;;;;4950797;28;20392;-74
2022/03/27 10:24:57;;;;;;;22.67;13.45;;;9.00;99.90;;;;;;4948037;29;20058;-72
2022/03/27 10:27:24;;;;;;;13.05;9.30;;;9.00;99.90;;;;;;4946282;28;20047;-70
2022/03/27 10:29:51;;;;;;;13.65;8.38;;;9.10;99.90;;;;;;4945025;29;20044;-72
2022/03/27 10:32:18;;;;;;;12.18;8.50;;;9.10;99.90;;;;;;4966394;28;20047;-67
2022/03/27 10:35:16;;;;;;;16.23;9.57;;;9.10;99.90;;;;;;4946304;29;20517;-71
2022/03/27 10:37:53;;;;;;;10.63;8.43;;;9.10;99.90;;;;;;4937696;29;20047;-72
2022/03/27 10:40:29;;;;;;;12.10;8.95;;;9.10;99.90;;;;;;4950222;28;20094;-74
2022/03/27 10:43:31;;;;;;;13.20;9.85;;;9.20;99.90;;;;;;4926844;29;20067;-71
2022/03/27 10:46:14;;;;;;;14.75;11.40;;;9.30;99.90;;;;;;4949294;28;20051;-74
2022/03/27 10:48:42;;;;;;;15.32;12.43;;;9.20;99.90;;;;;;4963360;28;20054;-73
2022/03/27 10:51:10;;;;;;;15.52;12.45;;;9.00;99.90;;;;;;4918340;29;20070;-74
2022/03/27 10:53:37;;;;;;;20.67;14.52;;;9.10;99.90;;;;;;4943747;29;20119;-71
2022/03/27 10:56:04;;;;;;;157.80;125.18;;;9.20;99.90;;;;;;4919766;29;20057;-64
2022/03/27 10:58:40;;;;;;;23.00;17.48;;;9.20;99.90;;;;;;4940994;29;20059;-70
2022/03/27 11:01:23;;;;;;;19.45;9.73;;;9.30;99.90;;;;;;4927624;29;20531;-71
2022/03/27 11:04:04;;;;;;;15.23;10.88;;;9.30;99.90;;;;;;4949363;29;20138;-72
2022/03/27 11:06:33;;;;;;;14.70;10.40;;;9.30;99.90;;;;;;4944629;29;20051;-67
2022/03/27 11:09:02;;;;;;;19.48;9.85;;;9.30;99.90;;;;;;4946338;29;20051;-67
2022/03/27 11:11:35;;;;;;;15.13;10.30;;;9.40;99.90;;;;;;4959295;28;20043;-68
2022/03/27 11:14:03;;;;;;;17.63;10.05;;;9.40;99.90;;;;;;4951918;28;20130;-67
2022/03/27 11:16:30;;;;;;;14.95;10.02;;;9.30;99.90;;;;;;4953643;28;20051;-67
2022/03/27 11:18:58;;;;;;;13.90;10.82;;;9.40;99.90;;;;;;4952677;29;20059;-67
2022/03/27 11:21:29;;;;;;;12.20;9.00;;;9.40;99.90;;;;;;4941265;28;20055;-67
2022/03/27 11:24:19;;;;;;;12.35;9.98;;;9.40;99.90;;;;;;4950031;29;20085;-67
2022/03/27 11:26:47;;;;;;;12.52;9.68;;;9.50;99.90;;;;;;4949323;28;20051;-67
2022/03/27 11:29:21;;;;;;;13.70;9.40;;;9.60;99.90;;;;;;4951613;28;20051;-67
2022/03/27 11:32:07;;;;;;;10.88;8.27;;;9.80;99.90;;;;;;4952361;29;20150;-67
2022/03/27 11:34:35;;;;;;;9.90;7.45;;;9.90;99.90;;;;;;4953138;29;20058;-67
2022/03/27 11:37:14;;;;;;;9.02;7.13;;;9.80;99.90;;;;;;4949038;29;20463;-68
2022/03/27 11:39:41;;;;;;;9.90;7.88;;;9.90;99.90;;;;;;4942975;28;20055;-67
2022/03/27 11:42:27;;;;;;;9.95;6.68;;;9.80;99.90;;;;;;4939762;29;20422;-67
2022/03/27 11:45:19;;;;;;;10.45;7.63;;;9.90;99.90;;;;;;4946873;29;20079;-68
2022/03/27 11:47:53;;;;;;;9.50;7.88;;;10.00;99.90;;;;;;4955459;29;20407;-67
2022/03/27 11:50:32;;;;;;;9.13;7.32;;;10.00;99.90;;;;;;4947930;28;20457;-67
2022/03/27 11:52:59;;;;;;;9.38;7.15;;;10.00;99.90;;;;;;4956944;28;20054;-67
2022/03/27 11:55:30;;;;;;;10.02;7.97;;;10.10;99.90;;;;;;4942644;29;20404;-67
2022/03/27 11:57:58;;;;;;;12.63;10.45;;;10.00;99.90;;;;;;4969324;28;20488;-67
2022/03/27 12:00:39;;;;;;;13.15;10.73;;;9.90;99.90;;;;;;4939204;29;20047;-67
2022/03/27 12:03:21;;;;;;;13.15;9.30;;;9.90;99.90;;;;;;4950155;29;20055;-67
2022/03/27 12:05:50;;;;;;;10.15;8.35;;;9.90;99.90;;;;;;4956881;28;20055;-67
2022/03/27 12:08:20;;;;;;;10.63;7.82;;;10.00;99.90;;;;;;4962782;28;20051;-67
2022/03/27 12:10:49;;;;;;;10.52;8.18;;;9.90;99.90;;;;;;4954727;28;20070;-66
2022/03/27 12:13:16;;;;;;;9.75;7.50;;;9.90;99.90;;;;;;4953628;28;20067;-67
2022/03/27 12:15:46;;;;;;;10.90;8.50;;;10.00;99.90;;;;;;4923006;29;20051;-67
2022/03/27 12:18:14;;;;;;;88.57;18.73;;;10.00;99.90;;;;;;4931395;29;20431;-67
2022/03/27 12:20:41;;;;;;;21.30;11.35;;;10.10;99.90;;;;;;4940033;29;20086;-67
2022/03/27 12:23:28;;;;;;;14.52;9.45;;;10.10;99.90;;;;;;4948833;29;20110;-67
2022/03/27 12:25:58;;;;;;;12.73;10.25;;;10.20;99.90;;;;;;4953690;29;20488;-67
2022/03/27 12:31:26;;;;;;;13.95;10.55;;;10.10;99.90;;;;;;4923386;29;20051;-67
2022/03/27 12:33:55;;;;;;;13.13;10.38;;;10.10;99.90;;;;;;4943173;29;20052;-67
2022/03/27 12:36:22;;;;;;;11.27;9.45;;;10.10;99.90;;;;;;4927639;29;20059;-67
2022/03/27 12:38:49;;;;;;;12.88;10.73;;;10.10;99.90;;;;;;4952993;29;20139;-67
2022/03/27 12:41:39;;;;;;;13.40;10.52;;;10.10;99.90;;;;;;4921803;29;20051;-68
2022/03/27 12:44:06;;;;;;;;;;;10.10;99.90;;;;;;4937649;29;20415;-67
2022/03/27 12:46:33;;;;;;;11.93;9.82;;;10.20;99.90;;;;;;4944554;29;19922;-67
2022/03/27 12:49:10;;;;;;;10.05;7.97;;;10.20;99.90;;;;;;4967684;28;20056;-69
2022/03/27 12:51:37;;;;;;;11.07;8.02;;;10.20;99.90;;;;;;4950757;28;20050;-69
2022/03/27 12:54:08;;;;;;;10.50;7.40;;;10.30;99.90;;;;;;4968307;28;20471;-66
2022/03/27 12:56:54;;;;;;;9.95;8.27;;;10.30;99.90;;;;;;4967240;28;20495;-66
2022/03/27 12:59:21;;;;;;;9.38;7.43;;;10.20;99.90;;;;;;4938129;29;20063;-67
2022/03/27 13:01:48;;;;;;;10.77;8.85;;;10.20;99.90;;;;;;4938991;29;20047;-67
2022/03/27 13:04:16;;;;;;;12.73;8.55;;;10.20;99.90;;;;;;4938711;29;20070;-67